createdAt,value
2023-01-09T00:00:49.780Z,75.84
2023-01-09T00:03:26.747Z,75.91
2023-01-09T00:05:56.436Z,75.88
2023-01-09T00:08:26.359Z,75.81
2023-01-09T00:10:56.267Z,75.85
2023-01-09T00:13:25.931Z,75.95
2023-01-09T00:15:56.254Z,75.97
2023-01-09T00:18:26.330Z,76.02
2023-01-09T00:21:02.274Z,76.18
2023-01-09T00:23:32.340Z,76.26
2023-01-09T00:26:06.182Z,76.28
2023-01-09T00:28:36.731Z,76.31
2023-01-09T00:31:09.401Z,76.36
2023-01-09T00:34:05.978Z,76.34
2023-01-09T00:36:38.099Z,76.41
2023-01-09T00:39:08.227Z,76.32
2023-01-09T00:41:53.138Z,76.23
2023-01-09T00:44:39.546Z,76.18
2023-01-09T00:47:22.039Z,76.22
2023-01-09T00:49:53.769Z,76.32
2023-01-09T00:52:23.480Z,76.10
2023-01-09T00:54:53.143Z,76.19
2023-01-09T00:57:22.571Z,76.11
2023-01-09T00:59:52.887Z,76.20
2023-01-09T01:02:22.309Z,76.16
2023-01-09T01:05:09.930Z,76.21
2023-01-09T01:07:39.286Z,76.37
2023-01-09T01:10:30.488Z,76.46
2023-01-09T01:13:00.064Z,76.65
2023-01-09T01:15:29.781Z,76.71
2023-01-09T01:17:59.186Z,76.82
2023-01-09T01:20:28.789Z,76.77
2023-01-09T01:22:58.303Z,76.74
2023-01-09T01:25:28.729Z,76.73
2023-01-09T01:27:58.223Z,76.82
2023-01-09T01:30:28.206Z,76.83
2023-01-09T01:32:57.651Z,76.91
2023-01-09T01:35:27.168Z,76.85
2023-01-09T01:37:57.719Z,76.89
2023-01-09T01:40:28.681Z,76.97
2023-01-09T01:42:59.065Z,77.00
2023-01-09T01:45:30.694Z,76.98
2023-01-09T01:48:09.530Z,76.98
2023-01-09T01:51:06.637Z,77.02
2023-01-09T01:53:53.949Z,77.14
2023-01-09T01:56:32.751Z,77.21
2023-01-09T01:59:24.914Z,77.29
2023-01-09T02:01:59.974Z,77.31
2023-01-09T02:04:33.308Z,77.26
2023-01-09T02:07:09.262Z,77.23
2023-01-09T02:09:42.320Z,77.23
2023-01-09T02:12:26.002Z,77.20
2023-01-09T02:15:19.695Z,77.18
2023-01-09T02:17:54.692Z,77.21
2023-01-09T02:20:46.804Z,77.22
2023-01-09T02:23:46.998Z,77.19
2023-01-09T02:26:35.238Z,77.34
2023-01-09T02:29:16.395Z,77.36
2023-01-09T02:32:22.635Z,77.44
2023-01-09T02:35:18.073Z,77.42
2023-01-09T02:38:24.592Z,77.61
2023-01-09T02:41:20.720Z,77.64
2023-01-09T02:44:13.858Z,77.55
2023-01-09T02:46:43.270Z,77.62
2023-01-09T02:49:17.199Z,77.79
2023-01-09T02:52:24.947Z,77.87
2023-01-09T02:55:12.393Z,77.84
2023-01-09T02:58:19.515Z,77.85
2023-01-09T03:00:55.733Z,77.99
2023-01-09T03:03:38.506Z,78.00
2023-01-09T03:06:21.423Z,77.99
2023-01-09T03:09:01.552Z,77.95
2023-01-09T03:11:38.726Z,77.94
2023-01-09T03:14:16.442Z,77.99
2023-01-09T03:16:50.005Z,78.00
2023-01-09T03:19:24.274Z,78.13
2023-01-09T03:21:56.205Z,78.05
2023-01-09T03:24:25.424Z,78.05
2023-01-09T03:26:55.613Z,78.03
2023-01-09T03:29:24.792Z,78.12
2023-01-09T03:31:54.937Z,78.07
2023-01-09T03:34:24.417Z,78.11
2023-01-09T03:36:53.790Z,78.27
2023-01-09T03:39:23.044Z,78.23
2023-01-09T03:41:52.519Z,78.37
2023-01-09T03:44:22.103Z,78.37
2023-01-09T03:46:51.745Z,78.37
2023-01-09T03:49:21.958Z,78.29
2023-01-09T03:51:51.462Z,78.39
2023-01-09T03:54:20.970Z,78.48
2023-01-09T03:56:50.827Z,78.43
2023-01-09T03:59:20.384Z,78.35
2023-01-09T04:01:50.824Z,78.33
2023-01-09T04:04:20.567Z,78.30
2023-01-09T04:06:52.401Z,78.43
2023-01-09T04:09:21.938Z,78.40
2023-01-09T04:11:54.601Z,78.53
2023-01-09T04:14:27.416Z,78.46
2023-01-09T04:16:57.234Z,78.41
2023-01-09T04:19:27.223Z,78.38
2023-01-09T04:21:57.039Z,78.50
2023-01-09T04:24:26.747Z,78.55
2023-01-09T04:26:58.681Z,78.49
2023-01-09T04:29:28.481Z,78.34
2023-01-09T04:31:58.221Z,78.51
2023-01-09T04:34:27.879Z,78.62
2023-01-09T04:36:57.735Z,78.55
2023-01-09T04:39:27.605Z,78.55
2023-01-09T04:41:57.237Z,78.59
2023-01-09T04:44:26.730Z,78.66
2023-01-09T04:46:59.213Z,78.75
2023-01-09T04:49:28.571Z,78.76
2023-01-09T04:51:57.894Z,78.66
2023-01-09T04:54:27.887Z,78.61
2023-01-09T04:56:57.189Z,78.65
2023-01-09T04:59:26.369Z,78.65
2023-01-09T05:01:56.392Z,78.61
2023-01-09T05:04:26.398Z,78.64
2023-01-09T05:06:55.634Z,78.67
2023-01-09T05:09:24.942Z,78.77
2023-01-09T05:11:54.271Z,78.87
2023-01-09T05:14:23.444Z,78.97
2023-01-09T05:16:52.638Z,79.00
2023-01-09T05:19:21.791Z,79.04
2023-01-09T05:21:51.351Z,79.04
2023-01-09T05:24:20.656Z,79.20
2023-01-09T05:26:49.939Z,79.10
2023-01-09T05:29:19.120Z,79.11
2023-01-09T05:31:48.341Z,79.12
2023-01-09T05:34:17.513Z,79.11
2023-01-09T05:36:46.694Z,78.97
2023-01-09T05:39:16.047Z,79.02
2023-01-09T05:41:45.218Z,79.08
2023-01-09T05:44:14.651Z,79.16
2023-01-09T05:46:43.818Z,79.23
2023-01-09T05:49:12.992Z,79.22
2023-01-09T05:51:42.292Z,79.26
2023-01-09T05:54:11.385Z,79.22
2023-01-09T05:56:40.628Z,79.07
2023-01-09T05:59:10.108Z,79.10
2023-01-09T06:01:39.342Z,79.13
2023-01-09T06:04:08.419Z,79.20
2023-01-09T06:06:37.631Z,79.16
2023-01-09T06:09:07.820Z,79.13
2023-01-09T06:11:38.546Z,79.24
2023-01-09T06:14:08.052Z,79.27
2023-01-09T06:16:37.371Z,79.20
2023-01-09T06:19:06.874Z,79.13
2023-01-09T06:21:36.094Z,79.12
2023-01-09T06:24:06.012Z,79.18
2023-01-09T06:26:35.222Z,79.17
2023-01-09T06:29:04.345Z,79.16
2023-01-09T06:31:33.436Z,79.21
2023-01-09T06:34:02.690Z,79.18
2023-01-09T06:36:31.834Z,79.14
2023-01-09T06:39:01.297Z,79.18
2023-01-09T06:41:30.534Z,79.16
2023-01-09T06:43:59.646Z,79.11
2023-01-09T06:46:28.802Z,79.18
2023-01-09T06:48:57.967Z,79.38
2023-01-09T06:51:27.098Z,79.14
2023-01-09T06:53:56.261Z,79.07
2023-01-09T06:56:25.311Z,79.12
2023-01-09T06:58:54.526Z,79.07
2023-01-09T07:01:23.876Z,79.02
2023-01-09T07:03:53.147Z,79.01
2023-01-09T07:06:22.402Z,78.96
2023-01-09T07:08:51.440Z,78.94
2023-01-09T07:11:20.614Z,78.78
2023-01-09T07:13:50.532Z,78.88
2023-01-09T07:16:19.775Z,78.86
2023-01-09T07:18:49.137Z,78.77
2023-01-09T07:21:18.360Z,78.74
2023-01-09T07:23:47.468Z,78.72
2023-01-09T07:26:16.721Z,78.61
2023-01-09T07:28:46.217Z,78.57
2023-01-09T07:31:15.249Z,78.61
2023-01-09T07:33:44.270Z,78.65
2023-01-09T07:36:13.521Z,78.59
2023-01-09T07:38:43.241Z,78.47
2023-01-09T07:41:12.445Z,78.37
2023-01-09T07:43:41.654Z,78.40
2023-01-09T07:46:10.751Z,78.44
2023-01-09T07:48:39.829Z,78.44
2023-01-09T07:51:10.615Z,78.44
2023-01-09T07:53:44.233Z,78.50
2023-01-09T07:56:13.354Z,78.53
2023-01-09T07:58:42.447Z,78.50
2023-01-09T08:01:11.754Z,78.40
2023-01-09T08:03:41.168Z,78.32
2023-01-09T08:06:10.452Z,78.26
2023-01-09T08:08:39.606Z,78.25
2023-01-09T08:11:08.847Z,78.49
2023-01-09T08:13:37.893Z,78.48
2023-01-09T08:16:08.138Z,78.52
2023-01-09T08:18:37.464Z,78.50
2023-01-09T08:21:06.976Z,78.56
2023-01-09T08:23:36.156Z,78.45
2023-01-09T08:26:06.042Z,78.39
2023-01-09T08:28:35.117Z,78.21
2023-01-09T08:31:04.237Z,78.21
2023-01-09T08:33:33.461Z,78.22
2023-01-09T08:36:02.689Z,78.13
2023-01-09T08:38:32.316Z,78.18
2023-01-09T08:41:21.414Z,78.23
2023-01-09T08:44:08.911Z,78.03
2023-01-09T08:46:56.513Z,78.02
2023-01-09T08:49:25.667Z,78.19
2023-01-09T08:51:54.853Z,78.19
2023-01-09T08:54:24.038Z,78.05
2023-01-09T08:56:53.374Z,77.91
2023-01-09T08:59:22.798Z,77.78
2023-01-09T09:01:52.095Z,77.63
2023-01-09T09:04:21.435Z,77.61
2023-01-09T09:06:50.569Z,77.75
2023-01-09T09:09:19.627Z,77.76
2023-01-09T09:11:48.733Z,77.78
2023-01-09T09:14:36.611Z,77.93
2023-01-09T09:17:05.685Z,78.09
2023-01-09T09:19:34.871Z,78.13
2023-01-09T09:22:04.065Z,78.10
2023-01-09T09:24:33.169Z,78.08
2023-01-09T09:27:02.303Z,78.09
2023-01-09T09:29:31.352Z,78.04
2023-01-09T09:32:01.234Z,78.17
2023-01-09T09:34:30.506Z,78.11
2023-01-09T09:37:00.375Z,77.98
2023-01-09T09:39:29.616Z,77.90
2023-01-09T09:42:42.358Z,77.94
2023-01-09T09:46:01.213Z,78.01
2023-01-09T09:48:43.361Z,78.06
2023-01-09T09:51:52.154Z,77.95
2023-01-09T09:54:47.385Z,78.08
2023-01-09T09:57:24.017Z,78.24
2023-01-09T09:59:54.227Z,78.22
2023-01-09T10:02:33.032Z,78.27
2023-01-09T10:05:29.216Z,78.34
2023-01-09T10:08:39.303Z,78.28
2023-01-09T10:11:28.804Z,78.42
2023-01-09T10:14:16.053Z,78.42
2023-01-09T10:17:04.805Z,78.35
2023-01-09T10:19:49.354Z,78.40
2023-01-09T10:22:53.275Z,78.45
2023-01-09T10:25:45.306Z,78.64
2023-01-09T10:28:26.061Z,78.67
2023-01-09T10:31:30.393Z,78.72
2023-01-09T10:34:55.512Z,78.78
2023-01-09T10:37:33.886Z,78.65
2023-01-09T10:40:21.075Z,78.75
2023-01-09T10:43:00.421Z,78.73
2023-01-09T10:45:50.975Z,78.75
2023-01-09T10:48:36.915Z,78.72
2023-01-09T10:51:35.719Z,78.70
2023-01-09T10:54:15.508Z,78.68
2023-01-09T10:57:19.338Z,78.52
2023-01-09T10:59:48.791Z,78.45
2023-01-09T11:02:35.665Z,78.39
2023-01-09T11:05:05.181Z,78.46
2023-01-09T11:07:42.462Z,78.38
2023-01-09T11:10:15.926Z,78.33
2023-01-09T11:12:47.836Z,78.28
2023-01-09T11:15:19.708Z,78.22
2023-01-09T11:17:51.898Z,78.17
2023-01-09T11:20:28.547Z,78.15
2023-01-09T11:22:59.228Z,78.10
2023-01-09T11:25:31.015Z,78.16
2023-01-09T11:28:04.919Z,78.20
2023-01-09T11:30:52.744Z,77.96
2023-01-09T11:33:31.880Z,77.80
2023-01-09T11:36:15.837Z,77.78
2023-01-09T11:39:01.311Z,78.02
2023-01-09T11:41:42.568Z,78.18
2023-01-09T11:44:15.984Z,78.06
2023-01-09T11:46:45.950Z,77.92
2023-01-09T11:49:15.337Z,77.83
2023-01-09T11:51:45.482Z,77.74
2023-01-09T11:54:30.582Z,77.62
2023-01-09T11:57:00.566Z,78.03
2023-01-09T11:59:31.764Z,78.28
2023-01-09T12:02:28.823Z,78.25
2023-01-09T12:05:22.427Z,78.28
2023-01-09T12:08:06.128Z,78.04
2023-01-09T12:11:12.574Z,77.68
2023-01-09T12:14:14.445Z,77.49
2023-01-09T12:16:58.812Z,77.00
2023-01-09T12:19:58.912Z,76.60
2023-01-09T12:22:57.444Z,76.27
2023-01-09T12:26:17.328Z,76.35
2023-01-09T12:29:01.163Z,76.37
2023-01-09T12:32:15.795Z,76.39
2023-01-09T12:35:08.739Z,76.45
2023-01-09T12:37:40.846Z,76.46
2023-01-09T12:40:16.251Z,76.52
2023-01-09T12:43:10.251Z,76.43
2023-01-09T12:46:19.366Z,76.49
2023-01-09T12:49:03.495Z,76.33
2023-01-09T12:51:55.616Z,76.05
2023-01-09T12:54:43.157Z,76.17
2023-01-09T12:57:38.442Z,76.19
2023-01-09T13:00:40.448Z,76.03
2023-01-09T13:03:20.985Z,75.88
2023-01-09T13:05:54.014Z,75.81
2023-01-09T13:08:42.804Z,75.80
2023-01-09T13:11:38.408Z,75.72
2023-01-09T13:14:40.316Z,75.58
2023-01-09T13:17:20.389Z,75.47
2023-01-09T13:19:51.201Z,75.56
2023-01-09T13:22:25.976Z,75.51
2023-01-09T13:25:32.803Z,75.62
2023-01-09T13:28:20.648Z,75.65
2023-01-09T13:31:24.297Z,75.50
2023-01-09T13:34:02.899Z,75.74
2023-01-09T13:36:40.294Z,75.79
2023-01-09T13:39:30.264Z,75.73
2023-01-09T13:42:24.700Z,75.71
2023-01-09T13:44:56.883Z,75.70
2023-01-09T13:47:29.986Z,75.88
2023-01-09T13:50:22.045Z,75.98
2023-01-09T13:52:52.406Z,76.00
2023-01-09T13:55:29.128Z,75.81
2023-01-09T13:58:08.787Z,75.80
2023-01-09T14:00:39.248Z,75.82
2023-01-09T14:03:33.414Z,75.78
2023-01-09T14:06:12.249Z,75.84
2023-01-09T14:08:46.029Z,75.67
2023-01-09T14:11:27.038Z,75.52
2023-01-09T14:14:05.000Z,75.67
2023-01-09T14:16:36.955Z,75.59
2023-01-09T14:19:18.819Z,75.63
2023-01-09T14:21:58.237Z,75.54
2023-01-09T14:24:46.484Z,75.53
2023-01-09T14:27:59.833Z,75.46
2023-01-09T14:30:34.073Z,75.57
2023-01-09T14:33:05.316Z,75.38
2023-01-09T14:35:51.326Z,75.42
2023-01-09T14:38:29.810Z,75.34
2023-01-09T14:41:52.241Z,75.19
2023-01-09T14:44:42.953Z,75.24
2023-01-09T14:47:15.360Z,75.28
2023-01-09T14:50:35.873Z,75.15
2023-01-09T14:53:15.554Z,75.20
2023-01-09T14:55:58.196Z,75.19
2023-01-09T14:58:36.467Z,75.07
2023-01-09T15:01:22.956Z,74.85
2023-01-09T15:04:01.239Z,74.79
2023-01-09T15:06:37.681Z,74.79
2023-01-09T15:09:26.325Z,74.76
2023-01-09T15:12:04.033Z,74.87
2023-01-09T15:14:48.981Z,74.97
2023-01-09T15:17:28.836Z,74.76
2023-01-09T15:20:06.334Z,74.66
2023-01-09T15:22:38.819Z,74.74
2023-01-09T15:25:44.918Z,74.82
2023-01-09T15:28:27.881Z,74.83
2023-01-09T15:31:11.434Z,74.74
2023-01-09T15:33:54.205Z,74.82
2023-01-09T15:36:31.306Z,74.74
2023-01-09T15:39:01.678Z,74.63
2023-01-09T15:41:51.086Z,74.65
2023-01-09T15:50:04.933Z,74.65
2023-01-09T15:52:35.688Z,74.65
2023-01-09T15:55:37.581Z,74.66
2023-01-09T15:58:30.386Z,74.73
2023-01-09T16:01:08.295Z,74.73
2023-01-09T16:03:39.144Z,74.56
2023-01-09T16:06:30.904Z,74.43
2023-01-09T16:09:05.588Z,74.43
2023-01-09T16:11:39.110Z,74.37
2023-01-09T16:14:38.775Z,74.56
2023-01-09T16:17:16.546Z,74.63
2023-01-09T16:20:13.072Z,74.57
2023-01-09T16:22:57.140Z,74.57
2023-01-09T16:25:31.624Z,74.49
2023-01-09T16:28:30.895Z,74.44
2023-01-09T16:31:31.146Z,74.56
2023-01-09T16:34:07.537Z,74.58
2023-01-09T16:36:37.531Z,74.59
2023-01-09T16:39:22.100Z,74.62
2023-01-09T16:42:11.524Z,74.56
2023-01-09T16:44:45.864Z,74.52
2023-01-09T16:47:20.464Z,74.63
2023-01-09T16:49:51.877Z,74.60
2023-01-09T16:52:26.972Z,74.37
2023-01-09T16:54:58.741Z,74.45
2023-01-09T16:57:28.649Z,74.41
2023-01-09T17:00:01.752Z,74.44
2023-01-09T17:02:34.035Z,74.54
2023-01-09T17:05:08.202Z,74.42
2023-01-09T17:07:40.328Z,74.48
2023-01-09T17:10:21.670Z,74.50
2023-01-09T17:12:53.505Z,74.36
2023-01-09T17:15:26.486Z,74.28
2023-01-09T17:17:58.414Z,74.14
2023-01-09T17:20:30.051Z,74.22
2023-01-09T17:22:59.615Z,74.30
2023-01-09T17:25:47.695Z,74.39
2023-01-09T17:28:36.207Z,74.36
2023-01-09T17:31:10.412Z,74.33
2023-01-09T17:33:43.149Z,74.30
2023-01-09T17:36:27.357Z,74.27
2023-01-09T17:38:57.155Z,74.27
2023-01-09T17:41:32.115Z,74.19
2023-01-09T17:44:13.992Z,74.20
2023-01-09T17:46:48.829Z,74.26
2023-01-09T17:49:28.464Z,74.19
2023-01-09T17:52:02.610Z,74.08
2023-01-09T17:54:41.119Z,74.01
2023-01-09T17:57:20.981Z,74.00
2023-01-09T17:59:56.111Z,74.02
2023-01-09T18:02:25.939Z,73.95
2023-01-09T18:04:56.014Z,73.92
2023-01-09T18:07:28.677Z,73.84
2023-01-09T18:10:02.378Z,73.87
2023-01-09T18:12:35.484Z,73.86
2023-01-09T18:15:06.157Z,73.75
2023-01-09T18:17:39.559Z,73.69
2023-01-09T18:20:32.286Z,73.71
2023-01-09T18:23:26.958Z,73.89
2023-01-09T18:26:00.689Z,73.91
2023-01-09T18:28:38.065Z,73.88
2023-01-09T18:31:09.030Z,73.88
2023-01-09T18:33:44.859Z,74.02
2023-01-09T18:36:31.808Z,74.08
2023-01-09T18:39:13.363Z,74.04
2023-01-09T18:41:43.385Z,73.96
2023-01-09T18:44:13.486Z,73.97
2023-01-09T18:46:47.391Z,73.97
2023-01-09T18:49:21.298Z,73.97
2023-01-09T18:51:56.703Z,73.87
2023-01-09T18:54:28.969Z,73.84
2023-01-09T18:57:03.929Z,73.74
2023-01-09T18:59:36.767Z,73.80
2023-01-09T19:02:26.882Z,73.87
2023-01-09T19:05:14.232Z,73.90
2023-01-09T19:07:55.322Z,73.88
2023-01-09T19:10:26.791Z,73.64
2023-01-09T19:12:56.903Z,73.58
2023-01-09T19:15:30.137Z,73.47
2023-01-09T19:18:15.834Z,73.49
2023-01-09T19:20:59.110Z,73.52
2023-01-09T19:23:32.980Z,73.53
2023-01-09T19:26:08.762Z,73.46
2023-01-09T19:28:45.853Z,73.36
2023-01-09T19:31:25.803Z,73.29
2023-01-09T19:34:05.330Z,73.24
2023-01-09T19:36:38.785Z,73.24
2023-01-09T19:39:14.054Z,73.11
2023-01-09T19:41:47.797Z,73.11
2023-01-09T19:44:23.521Z,73.05
2023-01-09T19:46:57.742Z,72.95
2023-01-09T19:49:35.550Z,72.93
2023-01-09T19:52:07.132Z,72.84
2023-01-09T19:54:37.068Z,72.72
2023-01-09T19:57:07.044Z,72.75
2023-01-09T19:59:40.229Z,72.78
2023-01-09T20:02:13.595Z,72.96
2023-01-09T20:04:44.014Z,72.94
2023-01-09T20:07:18.640Z,73.01
2023-01-09T20:10:42.416Z,73.11
2023-01-09T20:13:31.457Z,73.16
2023-01-09T20:16:11.844Z,73.14
2023-01-09T20:18:47.722Z,73.22
2023-01-09T20:24:18.845Z,73.34
2023-01-09T20:27:08.053Z,73.49
2023-01-09T20:29:48.179Z,73.55
2023-01-09T20:35:56.953Z,73.73
2023-01-09T20:39:07.450Z,73.78
2023-01-09T20:41:56.107Z,73.79
2023-01-09T20:44:52.508Z,73.94
2023-01-09T20:47:29.367Z,73.99
2023-01-09T20:50:01.121Z,74.13
2023-01-09T20:52:33.713Z,74.05
2023-01-09T20:55:11.491Z,74.01
2023-01-09T20:57:49.163Z,73.99
2023-01-09T21:00:32.497Z,74.02
2023-01-09T21:03:07.745Z,74.11
2023-01-09T21:05:54.228Z,74.19
2023-01-09T21:08:36.451Z,74.25
2023-01-09T21:11:06.436Z,74.28
2023-01-09T21:13:36.990Z,74.38
2023-01-09T21:16:20.344Z,74.39
2023-01-09T21:18:55.297Z,74.28
2023-01-09T21:21:50.935Z,74.33
2023-01-09T21:24:31.045Z,74.30
2023-01-09T21:27:25.915Z,74.32
2023-01-09T21:29:58.213Z,74.46
2023-01-09T21:32:38.107Z,74.45
2023-01-09T21:35:17.279Z,74.51
2023-01-09T21:37:49.763Z,74.55
2023-01-09T21:40:26.094Z,74.67
2023-01-09T21:43:57.769Z,74.61
2023-01-09T21:47:21.451Z,74.70
2023-01-09T21:53:33.890Z,74.75
2023-01-09T21:56:53.789Z,74.74
2023-01-09T21:59:33.504Z,74.91
2023-01-09T22:02:23.163Z,75.12
2023-01-09T22:05:00.380Z,75.03
2023-01-09T22:07:34.158Z,75.02
2023-01-09T22:10:24.951Z,75.11
2023-01-09T22:13:21.571Z,75.11
2023-01-09T22:16:06.212Z,75.06
2023-01-09T22:18:41.148Z,75.18
2023-01-09T22:21:19.245Z,75.10
2023-01-09T22:23:57.661Z,75.17
2023-01-09T22:26:29.797Z,75.11
2023-01-09T22:29:20.736Z,75.10
2023-01-09T22:32:18.873Z,75.05
2023-01-09T22:35:04.969Z,75.04
2023-01-09T22:37:38.784Z,75.00
2023-01-09T22:40:13.928Z,74.90
2023-01-09T22:42:43.630Z,75.01
2023-01-09T22:45:16.622Z,74.96
2023-01-09T22:47:52.527Z,74.92
2023-01-09T22:50:23.229Z,74.97
2023-01-09T22:52:58.450Z,74.96
2023-01-09T22:55:37.530Z,75.01
2023-01-09T22:58:10.831Z,75.01
2023-01-09T23:00:45.493Z,74.90
2023-01-09T23:09:12.141Z,75.10
2023-01-09T23:12:08.290Z,75.21
2023-01-09T23:14:45.596Z,75.24
2023-01-09T23:17:17.534Z,75.22
2023-01-09T23:19:58.024Z,75.20
2023-01-09T23:22:33.459Z,75.29
2023-01-09T23:25:10.653Z,75.32
2023-01-09T23:27:41.072Z,75.33
2023-01-09T23:30:16.594Z,75.34
2023-01-09T23:32:49.249Z,75.30
2023-01-09T23:35:23.172Z,75.32
2023-01-09T23:37:54.135Z,75.34
2023-01-09T23:40:28.566Z,75.45
2023-01-09T23:43:13.087Z,75.35
2023-01-09T23:45:54.722Z,75.29
2023-01-09T23:48:38.558Z,75.22
2023-01-09T23:51:09.929Z,75.17
2023-01-09T23:53:44.762Z,75.14
2023-01-09T23:56:14.405Z,75.30
2023-01-09T23:58:52.616Z,75.34
